sensor_id;sensor_type;location;lat;lon;timestamp;temperature;humidity
5956;DHT22;3004;48.080;11.600;2022-11-14T00:00:35;2.90;99.90
5956;DHT22;3004;48.080;11.600;2022-11-14T00:03:04;2.90;99.90
5956;DHT22;3004;48.080;11.600;2022-11-14T00:05:42;2.80;99.90
5956;DHT22;3004;48.080;11.600;2022-11-14T00:08:16;2.80;99.90
5956;DHT22;3004;48.080;11.600;2022-11-14T00:10:47;2.80;99.90
5956;DHT22;3004;48.080;11.600;2022-11-14T00:13:19;2.70;99.90
5956;DHT22;3004;48.080;11.600;2022-11-14T00:15:49;2.70;99.90
5956;DHT22;3004;48.080;11.600;2022-11-14T00:18:22;2.70;99.90
5956;DHT22;3004;48.080;11.600;2022-11-14T00:20:51;2.70;99.90
5956;DHT22;3004;48.080;11.600;2022-11-14T00:23:24;2.70;99.90
5956;DHT22;3004;48.080;11.600;2022-11-14T00:25:56;2.70;99.90
5956;DHT22;3004;48.080;11.600;2022-11-14T00:28:29;2.70;99.90
5956;DHT22;3004;48.080;11.600;2022-11-14T00:30:58;2.80;99.90
5956;DHT22;3004;48.080;11.600;2022-11-14T00:33:26;2.80;99.90
5956;DHT22;3004;48.080;11.600;2022-11-14T00:36:09;2.70;99.90
5956;DHT22;3004;48.080;11.600;2022-11-14T00:38:38;2.70;99.90
5956;DHT22;3004;48.080;11.600;2022-11-14T00:41:05;2.70;99.90
5956;DHT22;3004;48.080;11.600;2022-11-14T00:43:44;2.70;99.90
5956;DHT22;3004;48.080;11.600;2022-11-14T00:46:35;2.80;99.90
5956;DHT22;3004;48.080;11.600;2022-11-14T00:49:05;2.80;99.90
5956;DHT22;3004;48.080;11.600;2022-11-14T00:51:34;2.70;99.90
5956;DHT22;3004;48.080;11.600;2022-11-14T00:54:06;2.50;99.90
5956;DHT22;3004;48.080;11.600;2022-11-14T00:56:33;2.50;99.90
5956;DHT22;3004;48.080;11.600;2022-11-14T00:59:04;2.50;99.90
5956;DHT22;3004;48.080;11.600;2022-11-14T01:01:34;2.50;99.90
5956;DHT22;3004;48.080;11.600;2022-11-14T01:04:03;2.50;99.90
5956;DHT22;3004;48.080;11.600;2022-11-14T01:06:32;2.50;99.90
5956;DHT22;3004;48.080;11.600;2022-11-14T01:09:00;2.50;99.90
5956;DHT22;3004;48.080;11.600;2022-11-14T01:11:29;2.50;99.90
5956;DHT22;3004;48.080;11.600;2022-11-14T01:13:57;2.40;99.90
5956;DHT22;3004;48.080;11.600;2022-11-14T01:16:32;2.40;99.90
5956;DHT22;3004;48.080;11.600;2022-11-14T01:19:03;2.20;99.90
5956;DHT22;3004;48.080;11.600;2022-11-14T01:21:39;2.20;99.90
5956;DHT22;3004;48.080;11.600;2022-11-14T01:24:10;2.10;99.90
5956;DHT22;3004;48.080;11.600;2022-11-14T01:26:41;2.10;99.90
5956;DHT22;3004;48.080;11.600;2022-11-14T01:29:09;2.10;99.90
5956;DHT22;3004;48.080;11.600;2022-11-14T01:31:38;2.10;99.90
5956;DHT22;3004;48.080;11.600;2022-11-14T01:34:09;2.10;99.90
5956;DHT22;3004;48.080;11.600;2022-11-14T01:36:38;2.10;99.90
5956;DHT22;3004;48.080;11.600;2022-11-14T01:39:06;2.20;99.90
5956;DHT22;3004;48.080;11.600;2022-11-14T01:41:33;2.20;99.90
5956;DHT22;3004;48.080;11.600;2022-11-14T01:44:02;2.10;99.90
5956;DHT22;3004;48.080;11.600;2022-11-14T01:46:33;2.00;99.90
5956;DHT22;3004;48.080;11.600;2022-11-14T01:49:13;2.00;99.90
5956;DHT22;3004;48.080;11.600;2022-11-14T01:51:43;2.00;99.90
5956;DHT22;3004;48.080;11.600;2022-11-14T01:54:17;2.00;99.90
5956;DHT22;3004;48.080;11.600;2022-11-14T01:56:51;2.00;99.90
5956;DHT22;3004;48.080;11.600;2022-11-14T01:59:29;1.90;99.90
5956;DHT22;3004;48.080;11.600;2022-11-14T02:02:13;2.00;99.90
5956;DHT22;3004;48.080;11.600;2022-11-14T02:04:46;1.80;99.90
5956;DHT22;3004;48.080;11.600;2022-11-14T02:07:25;1.90;99.90
5956;DHT22;3004;48.080;11.600;2022-11-14T02:09:53;1.90;99.90
5956;DHT22;3004;48.080;11.600;2022-11-14T02:12:23;2.00;99.90
5956;DHT22;3004;48.080;11.600;2022-11-14T02:14:55;2.10;99.90
5956;DHT22;3004;48.080;11.600;2022-11-14T02:17:24;2.10;99.90
5956;DHT22;3004;48.080;11.600;2022-11-14T02:20:00;2.10;99.90
5956;DHT22;3004;48.080;11.600;2022-11-14T02:22:29;2.10;99.90
5956;DHT22;3004;48.080;11.600;2022-11-14T02:25:12;2.10;99.90
5956;DHT22;3004;48.080;11.600;2022-11-14T02:27:40;2.20;99.90
5956;DHT22;3004;48.080;11.600;2022-11-14T02:30:21;2.20;99.90
5956;DHT22;3004;48.080;11.600;2022-11-14T02:32:51;2.20;99.90
5956;DHT22;3004;48.080;11.600;2022-11-14T02:35:23;2.30;99.90
5956;DHT22;3004;48.080;11.600;2022-11-14T02:37:50;2.30;99.90
5956;DHT22;3004;48.080;11.600;2022-11-14T02:40:17;2.30;99.90
5956;DHT22;3004;48.080;11.600;2022-11-14T02:42:44;2.30;99.90
5956;DHT22;3004;48.080;11.600;2022-11-14T02:45:15;2.20;99.90
5956;DHT22;3004;48.080;11.600;2022-11-14T02:47:44;2.20;99.90
5956;DHT22;3004;48.080;11.600;2022-11-14T02:50:12;2.20;99.90
5956;DHT22;3004;48.080;11.600;2022-11-14T02:52:57;2.20;99.90
5956;DHT22;3004;48.080;11.600;2022-11-14T02:55:27;2.10;99.90
5956;DHT22;3004;48.080;11.600;2022-11-14T02:57:56;2.20;99.90
5956;DHT22;3004;48.080;11.600;2022-11-14T03:00:25;2.10;99.90
5956;DHT22;3004;48.080;11.600;2022-11-14T03:02:53;2.10;99.90
5956;DHT22;3004;48.080;11.600;2022-11-14T03:05:20;2.10;99.90
5956;DHT22;3004;48.080;11.600;2022-11-14T03:07:52;2.10;99.90
5956;DHT22;3004;48.080;11.600;2022-11-14T03:10:24;2.00;99.90
5956;DHT22;3004;48.080;11.600;2022-11-14T03:12:54;2.00;99.90
5956;DHT22;3004;48.080;11.600;2022-11-14T03:15:22;2.00;99.90
5956;DHT22;3004;48.080;11.600;2022-11-14T03:17:50;1.90;99.90
5956;DHT22;3004;48.080;11.600;2022-11-14T03:20:19;2.00;99.90
5956;DHT22;3004;48.080;11.600;2022-11-14T03:22:46;1.90;99.90
5956;DHT22;3004;48.080;11.600;2022-11-14T03:25:20;1.90;99.90
5956;DHT22;3004;48.080;11.600;2022-11-14T03:27:47;1.90;99.90
5956;DHT22;3004;48.080;11.600;2022-11-14T03:30:15;1.80;99.90
5956;DHT22;3004;48.080;11.600;2022-11-14T03:32:43;1.80;99.90
5956;DHT22;3004;48.080;11.600;2022-11-14T03:35:11;1.70;99.90
5956;DHT22;3004;48.080;11.600;2022-11-14T03:37:38;1.70;99.90
5956;DHT22;3004;48.080;11.600;2022-11-14T03:40:06;1.70;99.90
5956;DHT22;3004;48.080;11.600;2022-11-14T03:42:37;1.60;99.90
5956;DHT22;3004;48.080;11.600;2022-11-14T03:45:08;1.60;99.90
5956;DHT22;3004;48.080;11.600;2022-11-14T03:47:37;1.50;99.90
5956;DHT22;3004;48.080;11.600;2022-11-14T03:50:04;1.60;99.90
5956;DHT22;3004;48.080;11.600;2022-11-14T03:52:32;1.60;99.90
5956;DHT22;3004;48.080;11.600;2022-11-14T03:54:59;1.60;99.90
5956;DHT22;3004;48.080;11.600;2022-11-14T03:57:29;1.60;99.90
5956;DHT22;3004;48.080;11.600;2022-11-14T04:00:00;1.50;99.90
5956;DHT22;3004;48.080;11.600;2022-11-14T04:02:28;1.50;99.90
5956;DHT22;3004;48.080;11.600;2022-11-14T04:04:57;1.50;99.90
5956;DHT22;3004;48.080;11.600;2022-11-14T04:07:24;1.50;99.90
5956;DHT22;3004;48.080;11.600;2022-11-14T04:09:54;1.50;99.90
5956;DHT22;3004;48.080;11.600;2022-11-14T04:12:23;1.50;99.90
5956;DHT22;3004;48.080;11.600;2022-11-14T04:14:53;1.50;99.90
5956;DHT22;3004;48.080;11.600;2022-11-14T04:17:24;1.50;99.90
5956;DHT22;3004;48.080;11.600;2022-11-14T04:19:51;1.50;99.90
5956;DHT22;3004;48.080;11.600;2022-11-14T04:22:19;1.50;99.90
5956;DHT22;3004;48.080;11.600;2022-11-14T04:24:48;1.50;99.90
5956;DHT22;3004;48.080;11.600;2022-11-14T04:27:15;1.50;99.90
5956;DHT22;3004;48.080;11.600;2022-11-14T04:29:42;1.50;99.90
5956;DHT22;3004;48.080;11.600;2022-11-14T04:32:11;1.50;99.90
5956;DHT22;3004;48.080;11.600;2022-11-14T04:34:41;1.50;99.90
5956;DHT22;3004;48.080;11.600;2022-11-14T04:37:12;1.40;99.90
5956;DHT22;3004;48.080;11.600;2022-11-14T04:39:39;1.30;99.90
5956;DHT22;3004;48.080;11.600;2022-11-14T04:42:11;1.30;99.90
5956;DHT22;3004;48.080;11.600;2022-11-14T04:44:38;1.30;99.90
5956;DHT22;3004;48.080;11.600;2022-11-14T04:47:05;1.30;99.90
5956;DHT22;3004;48.080;11.600;2022-11-14T04:49:32;1.40;99.90
5956;DHT22;3004;48.080;11.600;2022-11-14T04:52:01;1.40;99.90
5956;DHT22;3004;48.080;11.600;2022-11-14T04:54:29;1.40;99.90
5956;DHT22;3004;48.080;11.600;2022-11-14T04:56:59;1.40;99.90
5956;DHT22;3004;48.080;11.600;2022-11-14T04:59:26;1.50;99.90
5956;DHT22;3004;48.080;11.600;2022-11-14T05:01:55;1.50;99.90
5956;DHT22;3004;48.080;11.600;2022-11-14T05:04:22;1.50;99.90
5956;DHT22;3004;48.080;11.600;2022-11-14T05:06:53;1.50;99.90
5956;DHT22;3004;48.080;11.600;2022-11-14T05:09:25;1.40;99.90
5956;DHT22;3004;48.080;11.600;2022-11-14T05:11:53;1.30;99.90
5956;DHT22;3004;48.080;11.600;2022-11-14T05:14:23;1.30;99.90
5956;DHT22;3004;48.080;11.600;2022-11-14T05:16:51;1.30;99.90
5956;DHT22;3004;48.080;11.600;2022-11-14T05:19:19;1.30;99.90
5956;DHT22;3004;48.080;11.600;2022-11-14T05:21:48;1.20;99.90
5956;DHT22;3004;48.080;11.600;2022-11-14T05:27:39;1.10;99.90
5956;DHT22;3004;48.080;11.600;2022-11-14T05:30:13;1.10;99.90
5956;DHT22;3004;48.080;11.600;2022-11-14T05:32:44;1.20;99.90
5956;DHT22;3004;48.080;11.600;2022-11-14T05:35:25;1.10;99.90
5956;DHT22;3004;48.080;11.600;2022-11-14T05:37:55;0.90;99.90
5956;DHT22;3004;48.080;11.600;2022-11-14T05:40:22;0.70;99.90
5956;DHT22;3004;48.080;11.600;2022-11-14T05:42:57;0.70;99.90
5956;DHT22;3004;48.080;11.600;2022-11-14T05:45:27;0.80;99.90
5956;DHT22;3004;48.080;11.600;2022-11-14T05:47:54;0.80;99.90
5956;DHT22;3004;48.080;11.600;2022-11-14T05:50:23;0.70;99.90
5956;DHT22;3004;48.080;11.600;2022-11-14T05:52:53;0.70;99.90
5956;DHT22;3004;48.080;11.600;2022-11-14T05:55:25;0.60;99.90
5956;DHT22;3004;48.080;11.600;2022-11-14T05:57:56;0.70;99.90
5956;DHT22;3004;48.080;11.600;2022-11-14T06:00:28;0.70;99.90
5956;DHT22;3004;48.080;11.600;2022-11-14T06:02:57;0.70;99.90
5956;DHT22;3004;48.080;11.600;2022-11-14T06:05:25;0.70;99.90
5956;DHT22;3004;48.080;11.600;2022-11-14T06:07:58;0.70;99.90
5956;DHT22;3004;48.080;11.600;2022-11-14T06:10:28;0.70;99.90
5956;DHT22;3004;48.080;11.600;2022-11-14T06:12:57;0.60;99.90
5956;DHT22;3004;48.080;11.600;2022-11-14T06:15:27;0.70;99.90
5956;DHT22;3004;48.080;11.600;2022-11-14T06:17:56;0.60;99.90
5956;DHT22;3004;48.080;11.600;2022-11-14T06:20:23;0.60;99.90
5956;DHT22;3004;48.080;11.600;2022-11-14T06:22:53;0.60;99.90
5956;DHT22;3004;48.080;11.600;2022-11-14T06:25:20;0.60;99.90
5956;DHT22;3004;48.080;11.600;2022-11-14T06:27:47;0.60;99.90
5956;DHT22;3004;48.080;11.600;2022-11-14T06:30:16;0.50;99.90
5956;DHT22;3004;48.080;11.600;2022-11-14T06:32:43;0.50;99.90
5956;DHT22;3004;48.080;11.600;2022-11-14T06:35:12;0.60;99.90
5956;DHT22;3004;48.080;11.600;2022-11-14T06:37:40;0.50;99.90
5956;DHT22;3004;48.080;11.600;2022-11-14T06:40:12;0.60;99.90
5956;DHT22;3004;48.080;11.600;2022-11-14T06:42:45;0.70;99.90
5956;DHT22;3004;48.080;11.600;2022-11-14T06:45:27;0.70;99.90
5956;DHT22;3004;48.080;11.600;2022-11-14T06:47:59;0.80;99.90
5956;DHT22;3004;48.080;11.600;2022-11-14T06:50:38;0.80;99.90
5956;DHT22;3004;48.080;11.600;2022-11-14T06:53:05;0.80;99.90
5956;DHT22;3004;48.080;11.600;2022-11-14T06:55:34;0.80;99.90
5956;DHT22;3004;48.080;11.600;2022-11-14T06:58:04;0.90;99.90
5956;DHT22;3004;48.080;11.600;2022-11-14T07:00:35;0.90;99.90
5956;DHT22;3004;48.080;11.600;2022-11-14T07:03:06;0.90;99.90
5956;DHT22;3004;48.080;11.600;2022-11-14T07:05:33;0.90;99.90
5956;DHT22;3004;48.080;11.600;2022-11-14T07:08:00;1.10;99.90
5956;DHT22;3004;48.080;11.600;2022-11-14T07:10:36;1.20;99.90
5956;DHT22;3004;48.080;11.600;2022-11-14T07:13:17;1.20;99.90
5956;DHT22;3004;48.080;11.600;2022-11-14T07:15:56;1.20;99.90
5956;DHT22;3004;48.080;11.600;2022-11-14T07:18:28;1.20;99.90
5956;DHT22;3004;48.080;11.600;2022-11-14T07:21:07;1.20;99.90
5956;DHT22;3004;48.080;11.600;2022-11-14T07:23:38;1.20;99.90
5956;DHT22;3004;48.080;11.600;2022-11-14T07:26:09;1.20;99.90
5956;DHT22;3004;48.080;11.600;2022-11-14T07:28:41;1.50;99.90
5956;DHT22;3004;48.080;11.600;2022-11-14T07:31:13;1.60;99.90
5956;DHT22;3004;48.080;11.600;2022-11-14T07:33:47;1.60;99.90
5956;DHT22;3004;48.080;11.600;2022-11-14T07:36:35;1.50;99.90
5956;DHT22;3004;48.080;11.600;2022-11-14T07:39:04;1.50;99.90
5956;DHT22;3004;48.080;11.600;2022-11-14T07:41:45;1.60;99.90
5956;DHT22;3004;48.080;11.600;2022-11-14T07:44:26;1.60;99.90
5956;DHT22;3004;48.080;11.600;2022-11-14T07:47:01;1.90;99.90
5956;DHT22;3004;48.080;11.600;2022-11-14T07:49:28;2.00;99.90
5956;DHT22;3004;48.080;11.600;2022-11-14T07:51:57;2.00;99.90
5956;DHT22;3004;48.080;11.600;2022-11-14T07:54:24;2.00;99.90
5956;DHT22;3004;48.080;11.600;2022-11-14T07:56:54;2.10;99.90
5956;DHT22;3004;48.080;11.600;2022-11-14T07:59:24;2.10;99.90
5956;DHT22;3004;48.080;11.600;2022-11-14T08:01:53;2.20;99.90
5956;DHT22;3004;48.080;11.600;2022-11-14T08:04:28;2.20;99.90
5956;DHT22;3004;48.080;11.600;2022-11-14T08:07:02;2.40;99.90
5956;DHT22;3004;48.080;11.600;2022-11-14T08:09:40;2.50;99.90
5956;DHT22;3004;48.080;11.600;2022-11-14T08:12:07;2.60;99.90
5956;DHT22;3004;48.080;11.600;2022-11-14T08:14:42;2.70;99.90
5956;DHT22;3004;48.080;11.600;2022-11-14T08:17:13;2.80;99.90
5956;DHT22;3004;48.080;11.600;2022-11-14T08:19:50;2.80;99.90
5956;DHT22;3004;48.080;11.600;2022-11-14T08:22:24;2.80;99.90
5956;DHT22;3004;48.080;11.600;2022-11-14T08:25:00;2.80;99.90
5956;DHT22;3004;48.080;11.600;2022-11-14T08:27:29;2.80;99.90
5956;DHT22;3004;48.080;11.600;2022-11-14T08:29:59;2.80;99.90
5956;DHT22;3004;48.080;11.600;2022-11-14T08:32:28;2.90;99.90
5956;DHT22;3004;48.080;11.600;2022-11-14T08:34:59;3.00;99.90
5956;DHT22;3004;48.080;11.600;2022-11-14T08:37:30;3.10;99.90
5956;DHT22;3004;48.080;11.600;2022-11-14T08:40:23;3.10;99.90
5956;DHT22;3004;48.080;11.600;2022-11-14T08:43:05;3.40;99.90
5956;DHT22;3004;48.080;11.600;2022-11-14T08:45:42;3.60;99.90
5956;DHT22;3004;48.080;11.600;2022-11-14T08:48:24;3.80;99.90
5956;DHT22;3004;48.080;11.600;2022-11-14T08:51:18;3.90;99.90
5956;DHT22;3004;48.080;11.600;2022-11-14T08:53:48;4.00;99.90
5956;DHT22;3004;48.080;11.600;2022-11-14T08:56:20;4.00;99.90
5956;DHT22;3004;48.080;11.600;2022-11-14T08:58:52;3.90;99.90
5956;DHT22;3004;48.080;11.600;2022-11-14T09:01:23;3.90;99.90
5956;DHT22;3004;48.080;11.600;2022-11-14T09:04:08;3.90;99.90
5956;DHT22;3004;48.080;11.600;2022-11-14T09:06:38;3.90;99.90
5956;DHT22;3004;48.080;11.600;2022-11-14T09:09:13;4.00;99.90
5956;DHT22;3004;48.080;11.600;2022-11-14T09:11:49;4.10;99.90
5956;DHT22;3004;48.080;11.600;2022-11-14T09:14:20;4.20;99.90
5956;DHT22;3004;48.080;11.600;2022-11-14T09:17:00;4.30;99.90
5956;DHT22;3004;48.080;11.600;2022-11-14T09:19:28;4.50;99.90
5956;DHT22;3004;48.080;11.600;2022-11-14T09:22:07;4.70;99.90
5956;DHT22;3004;48.080;11.600;2022-11-14T09:24:39;4.80;99.90
5956;DHT22;3004;48.080;11.600;2022-11-14T09:27:13;4.90;99.90
5956;DHT22;3004;48.080;11.600;2022-11-14T09:29:42;4.90;99.90
5956;DHT22;3004;48.080;11.600;2022-11-14T09:32:20;5.00;99.90
5956;DHT22;3004;48.080;11.600;2022-11-14T09:34:50;5.20;99.90
5956;DHT22;3004;48.080;11.600;2022-11-14T09:37:21;5.20;99.90
5956;DHT22;3004;48.080;11.600;2022-11-14T09:40:01;5.20;99.90
5956;DHT22;3004;48.080;11.600;2022-11-14T09:42:56;5.40;99.90
5956;DHT22;3004;48.080;11.600;2022-11-14T09:45:32;5.50;99.90
5956;DHT22;3004;48.080;11.600;2022-11-14T09:48:31;5.70;99.90
5956;DHT22;3004;48.080;11.600;2022-11-14T09:51:18;5.90;99.90
5956;DHT22;3004;48.080;11.600;2022-11-14T09:53:57;6.30;99.90
5956;DHT22;3004;48.080;11.600;2022-11-14T09:56:38;6.50;99.90
5956;DHT22;3004;48.080;11.600;2022-11-14T09:59:23;6.50;99.90
5956;DHT22;3004;48.080;11.600;2022-11-14T10:01:59;6.50;99.90
5956;DHT22;3004;48.080;11.600;2022-11-14T10:05:02;6.70;99.90
5956;DHT22;3004;48.080;11.600;2022-11-14T10:11:10;7.10;99.90
5956;DHT22;3004;48.080;11.600;2022-11-14T10:17:31;7.60;99.90
5956;DHT22;3004;48.080;11.600;2022-11-14T10:20:10;7.80;99.90
5956;DHT22;3004;48.080;11.600;2022-11-14T10:23:00;8.00;99.90
5956;DHT22;3004;48.080;11.600;2022-11-14T10:25:57;8.20;99.90
5956;DHT22;3004;48.080;11.600;2022-11-14T10:32:21;8.40;99.90
5956;DHT22;3004;48.080;11.600;2022-11-14T10:38:25;8.90;99.90
5956;DHT22;3004;48.080;11.600;2022-11-14T10:41:03;8.90;99.90
5956;DHT22;3004;48.080;11.600;2022-11-14T10:44:21;9.10;99.90
5956;DHT22;3004;48.080;11.600;2022-11-14T10:47:01;9.10;99.90
5956;DHT22;3004;48.080;11.600;2022-11-14T10:49:46;9.20;99.90
5956;DHT22;3004;48.080;11.600;2022-11-14T10:52:39;9.30;99.90
5956;DHT22;3004;48.080;11.600;2022-11-14T10:55:20;9.30;99.90
5956;DHT22;3004;48.080;11.600;2022-11-14T10:57:56;9.50;99.90
5956;DHT22;3004;48.080;11.600;2022-11-14T11:00:31;9.70;99.90
5956;DHT22;3004;48.080;11.600;2022-11-14T11:03:21;9.90;99.90
5956;DHT22;3004;48.080;11.600;2022-11-14T11:06:24;10.10;99.90
5956;DHT22;3004;48.080;11.600;2022-11-14T11:09:13;10.50;99.90
5956;DHT22;3004;48.080;11.600;2022-11-14T11:12:16;10.60;99.90
5956;DHT22;3004;48.080;11.600;2022-11-14T11:14:49;10.70;99.90
5956;DHT22;3004;48.080;11.600;2022-11-14T11:17:26;10.70;99.90
5956;DHT22;3004;48.080;11.600;2022-11-14T11:20:28;10.80;99.90
5956;DHT22;3004;48.080;11.600;2022-11-14T11:23:05;11.00;99.90
5956;DHT22;3004;48.080;11.600;2022-11-14T11:25:38;11.10;99.90
5956;DHT22;3004;48.080;11.600;2022-11-14T11:28:18;11.20;99.90
5956;DHT22;3004;48.080;11.600;2022-11-14T11:30:59;11.50;99.90
5956;DHT22;3004;48.080;11.600;2022-11-14T11:33:29;11.60;99.90
5956;DHT22;3004;48.080;11.600;2022-11-14T11:36:00;11.90;99.90
5956;DHT22;3004;48.080;11.600;2022-11-14T11:38:33;11.70;99.90
5956;DHT22;3004;48.080;11.600;2022-11-14T11:41:24;11.90;99.90
5956;DHT22;3004;48.080;11.600;2022-11-14T11:43:59;11.70;99.90
5956;DHT22;3004;48.080;11.600;2022-11-14T11:46:33;12.20;99.90
5956;DHT22;3004;48.080;11.600;2022-11-14T11:49:17;12.30;99.90
5956;DHT22;3004;48.080;11.600;2022-11-14T11:51:50;12.20;99.90
5956;DHT22;3004;48.080;11.600;2022-11-14T11:54:47;11.80;99.90
5956;DHT22;3004;48.080;11.600;2022-11-14T11:57:43;11.60;99.90
5956;DHT22;3004;48.080;11.600;2022-11-14T12:00:52;11.20;99.90
5956;DHT22;3004;48.080;11.600;2022-11-14T12:03:36;10.90;99.90
5956;DHT22;3004;48.080;11.600;2022-11-14T12:06:24;10.90;99.90
5956;DHT22;3004;48.080;11.600;2022-11-14T12:09:10;11.20;99.90
5956;DHT22;3004;48.080;11.600;2022-11-14T12:12:15;11.20;99.90
5956;DHT22;3004;48.080;11.600;2022-11-14T12:15:12;11.20;99.90
5956;DHT22;3004;48.080;11.600;2022-11-14T12:18:31;11.30;99.90
5956;DHT22;3004;48.080;11.600;2022-11-14T12:21:54;11.30;99.90
5956;DHT22;3004;48.080;11.600;2022-11-14T12:41:46;11.80;99.90
5956;DHT22;3004;48.080;11.600;2022-11-14T12:44:39;12.30;99.90
5956;DHT22;3004;48.080;11.600;2022-11-14T12:47:31;12.50;99.90
5956;DHT22;3004;48.080;11.600;2022-11-14T12:54:04;11.60;99.90
5956;DHT22;3004;48.080;11.600;2022-11-14T12:57:17;11.70;99.90
5956;DHT22;3004;48.080;11.600;2022-11-14T13:00:23;11.70;99.90
5956;DHT22;3004;48.080;11.600;2022-11-14T13:03:09;11.80;99.90
5956;DHT22;3004;48.080;11.600;2022-11-14T13:05:55;11.90;99.90
5956;DHT22;3004;48.080;11.600;2022-11-14T13:08:48;11.90;99.90
5956;DHT22;3004;48.080;11.600;2022-11-14T13:11:42;11.60;99.90
5956;DHT22;3004;48.080;11.600;2022-11-14T13:14:32;11.60;99.90
5956;DHT22;3004;48.080;11.600;2022-11-14T13:24:05;11.40;99.90
5956;DHT22;3004;48.080;11.600;2022-11-14T13:26:57;11.40;99.90
5956;DHT22;3004;48.080;11.600;2022-11-14T13:30:29;11.20;99.90
5956;DHT22;3004;48.080;11.600;2022-11-14T13:33:55;11.20;99.90
5956;DHT22;3004;48.080;11.600;2022-11-14T13:37:03;11.20;99.90
5956;DHT22;3004;48.080;11.600;2022-11-14T13:39:46;11.20;99.90
5956;DHT22;3004;48.080;11.600;2022-11-14T13:42:45;11.10;99.90
5956;DHT22;3004;48.080;11.600;2022-11-14T13:45:49;11.10;99.90
5956;DHT22;3004;48.080;11.600;2022-11-14T13:51:31;11.00;99.90
5956;DHT22;3004;48.080;11.600;2022-11-14T13:54:16;11.10;99.90
5956;DHT22;3004;48.080;11.600;2022-11-14T13:57:17;11.00;99.90
5956;DHT22;3004;48.080;11.600;2022-11-14T14:00:00;10.90;99.90
5956;DHT22;3004;48.080;11.600;2022-11-14T14:05:54;11.00;99.90
5956;DHT22;3004;48.080;11.600;2022-11-14T14:39:08;10.50;99.90
5956;DHT22;3004;48.080;11.600;2022-11-14T14:41:43;10.30;99.90
5956;DHT22;3004;48.080;11.600;2022-11-14T14:44:45;10.20;99.90
5956;DHT22;3004;48.080;11.600;2022-11-14T14:47:37;10.00;99.90
5956;DHT22;3004;48.080;11.600;2022-11-14T14:50:18;9.90;99.90
5956;DHT22;3004;48.080;11.600;2022-11-14T14:53:04;9.80;99.90
5956;DHT22;3004;48.080;11.600;2022-11-14T14:55:37;9.70;99.90
5956;DHT22;3004;48.080;11.600;2022-11-14T14:58:26;9.60;99.90
5956;DHT22;3004;48.080;11.600;2022-11-14T15:01:02;9.50;99.90
5956;DHT22;3004;48.080;11.600;2022-11-14T15:03:39;9.40;99.90
5956;DHT22;3004;48.080;11.600;2022-11-14T15:16:38;9.00;99.90
5956;DHT22;3004;48.080;11.600;2022-11-14T15:19:12;8.90;99.90
5956;DHT22;3004;48.080;11.600;2022-11-14T15:22:18;8.80;99.90
5956;DHT22;3004;48.080;11.600;2022-11-14T15:25:14;8.60;99.90
5956;DHT22;3004;48.080;11.600;2022-11-14T15:27:53;8.40;99.90
5956;DHT22;3004;48.080;11.600;2022-11-14T15:30:39;8.40;99.90
5956;DHT22;3004;48.080;11.600;2022-11-14T15:33:30;8.20;99.90
5956;DHT22;3004;48.080;11.600;2022-11-14T15:36:09;8.10;99.90
5956;DHT22;3004;48.080;11.600;2022-11-14T15:38:39;8.00;99.90
5956;DHT22;3004;48.080;11.600;2022-11-14T15:41:34;7.90;99.90
5956;DHT22;3004;48.080;11.600;2022-11-14T15:44:01;7.80;99.90
5956;DHT22;3004;48.080;11.600;2022-11-14T15:46:52;7.70;99.90
5956;DHT22;3004;48.080;11.600;2022-11-14T15:50:20;7.60;99.90
5956;DHT22;3004;48.080;11.600;2022-11-14T15:52:54;7.60;99.90
5956;DHT22;3004;48.080;11.600;2022-11-14T15:55:31;7.40;99.90
5956;DHT22;3004;48.080;11.600;2022-11-14T15:58:00;7.30;99.90
5956;DHT22;3004;48.080;11.600;2022-11-14T16:00:36;7.20;99.90
5956;DHT22;3004;48.080;11.600;2022-11-14T16:03:09;7.20;99.90
5956;DHT22;3004;48.080;11.600;2022-11-14T16:05:39;7.10;99.90
5956;DHT22;3004;48.080;11.600;2022-11-14T16:08:08;7.10;99.90
5956;DHT22;3004;48.080;11.600;2022-11-14T16:10:37;7.00;99.90
5956;DHT22;3004;48.080;11.600;2022-11-14T16:13:08;6.90;99.90
5956;DHT22;3004;48.080;11.600;2022-11-14T16:15:40;6.90;99.90
5956;DHT22;3004;48.080;11.600;2022-11-14T16:18:10;7.00;99.90
5956;DHT22;3004;48.080;11.600;2022-11-14T16:20:41;6.90;99.90
5956;DHT22;3004;48.080;11.600;2022-11-14T16:23:12;6.80;99.90
5956;DHT22;3004;48.080;11.600;2022-11-14T16:25:46;6.80;99.90
5956;DHT22;3004;48.080;11.600;2022-11-14T16:28:15;6.90;99.90
5956;DHT22;3004;48.080;11.600;2022-11-14T16:30:52;6.90;99.90
5956;DHT22;3004;48.080;11.600;2022-11-14T16:33:24;6.90;99.90
5956;DHT22;3004;48.080;11.600;2022-11-14T16:35:56;6.90;99.90
5956;DHT22;3004;48.080;11.600;2022-11-14T16:38:27;6.90;99.90
5956;DHT22;3004;48.080;11.600;2022-11-14T16:40:59;6.90;99.90
5956;DHT22;3004;48.080;11.600;2022-11-14T16:43:45;6.90;99.90
5956;DHT22;3004;48.080;11.600;2022-11-14T16:46:19;6.80;99.90
5956;DHT22;3004;48.080;11.600;2022-11-14T16:48:48;6.60;99.90
5956;DHT22;3004;48.080;11.600;2022-11-14T16:51:23;6.60;99.90
5956;DHT22;3004;48.080;11.600;2022-11-14T16:53:53;6.50;99.90
5956;DHT22;3004;48.080;11.600;2022-11-14T16:56:25;6.50;99.90
5956;DHT22;3004;48.080;11.600;2022-11-14T16:58:58;6.50;99.90
5956;DHT22;3004;48.080;11.600;2022-11-14T17:01:53;6.40;99.90
5956;DHT22;3004;48.080;11.600;2022-11-14T17:04:42;6.40;99.90
5956;DHT22;3004;48.080;11.600;2022-11-14T17:07:26;6.40;99.90
5956;DHT22;3004;48.080;11.600;2022-11-14T17:13:02;6.30;99.90
5956;DHT22;3004;48.080;11.600;2022-11-14T17:15:43;6.40;99.90
5956;DHT22;3004;48.080;11.600;2022-11-14T17:18:16;6.40;99.90
5956;DHT22;3004;48.080;11.600;2022-11-14T17:21:01;6.40;99.90
5956;DHT22;3004;48.080;11.600;2022-11-14T17:23:53;6.40;99.90
5956;DHT22;3004;48.080;11.600;2022-11-14T17:26:38;6.20;99.90
5956;DHT22;3004;48.080;11.600;2022-11-14T17:29:13;6.20;99.90
5956;DHT22;3004;48.080;11.600;2022-11-14T17:31:56;6.20;99.90
5956;DHT22;3004;48.080;11.600;2022-11-14T17:34:29;6.00;99.90
5956;DHT22;3004;48.080;11.600;2022-11-14T17:37:03;6.00;99.90
5956;DHT22;3004;48.080;11.600;2022-11-14T17:39:33;5.90;99.90
5956;DHT22;3004;48.080;11.600;2022-11-14T17:42:00;5.80;99.90
5956;DHT22;3004;48.080;11.600;2022-11-14T17:44:31;5.70;99.90
5956;DHT22;3004;48.080;11.600;2022-11-14T17:47:07;5.60;99.90
5956;DHT22;3004;48.080;11.600;2022-11-14T17:49:41;5.60;99.90
5956;DHT22;3004;48.080;11.600;2022-11-14T17:52:15;5.50;99.90
5956;DHT22;3004;48.080;11.600;2022-11-14T17:54:59;5.40;99.90
5956;DHT22;3004;48.080;11.600;2022-11-14T18:00:32;5.40;99.90
5956;DHT22;3004;48.080;11.600;2022-11-14T18:03:08;5.50;99.90
5956;DHT22;3004;48.080;11.600;2022-11-14T18:05:51;5.50;99.90
5956;DHT22;3004;48.080;11.600;2022-11-14T18:09:09;5.50;99.90
5956;DHT22;3004;48.080;11.600;2022-11-14T18:11:52;5.30;99.90
5956;DHT22;3004;48.080;11.600;2022-11-14T18:14:31;5.10;99.90
5956;DHT22;3004;48.080;11.600;2022-11-14T18:17:08;5.10;99.90
5956;DHT22;3004;48.080;11.600;2022-11-14T18:19:47;5.00;99.90
5956;DHT22;3004;48.080;11.600;2022-11-14T18:22:19;5.00;99.90
5956;DHT22;3004;48.080;11.600;2022-11-14T18:24:47;4.90;99.90
5956;DHT22;3004;48.080;11.600;2022-11-14T18:27:21;4.80;99.90
5956;DHT22;3004;48.080;11.600;2022-11-14T18:30:09;4.90;99.90
5956;DHT22;3004;48.080;11.600;2022-11-14T18:32:47;4.90;99.90
5956;DHT22;3004;48.080;11.600;2022-11-14T18:35:16;4.90;99.90
5956;DHT22;3004;48.080;11.600;2022-11-14T18:39:18;4.90;99.90